createdAt,value
2018-04-17T00:00:29.601Z,93.21
2018-04-17T00:02:55.559Z,93.07
2018-04-17T00:05:21.481Z,93.14
2018-04-17T00:07:47.377Z,92.69
2018-04-17T00:10:13.273Z,93.06
2018-04-17T00:12:39.235Z,93.00
2018-04-17T00:15:05.236Z,92.35
2018-04-17T00:17:31.119Z,92.11
2018-04-17T00:19:57.060Z,92.62
2018-04-17T00:22:22.946Z,92.77
2018-04-17T00:24:48.831Z,92.68
2018-04-17T00:27:14.928Z,92.85
2018-04-17T00:29:40.803Z,92.64
2018-04-17T00:32:06.680Z,92.51
2018-04-17T00:34:32.638Z,92.68
2018-04-17T00:36:58.513Z,92.79
2018-04-17T00:39:24.486Z,92.73
2018-04-17T00:41:50.596Z,92.76
2018-04-17T00:44:17.542Z,92.57
2018-04-17T00:46:43.429Z,92.80
2018-04-17T00:49:09.375Z,92.64
2018-04-17T00:51:35.817Z,92.61
2018-04-17T00:54:04.719Z,92.28
2018-04-17T00:56:30.655Z,92.19
2018-04-17T00:58:56.541Z,92.57
2018-04-17T01:01:22.419Z,92.66
2018-04-17T01:03:48.440Z,92.88
2018-04-17T01:06:14.312Z,93.12
2018-04-17T01:08:40.208Z,93.29
2018-04-17T01:11:06.293Z,93.26
2018-04-17T01:13:32.168Z,93.16
2018-04-17T01:15:58.146Z,93.11
2018-04-17T01:18:27.205Z,93.39
2018-04-17T01:20:53.109Z,93.59
2018-04-17T01:23:19.005Z,93.70
2018-04-17T01:25:44.942Z,93.08
2018-04-17T01:28:10.906Z,93.27
2018-04-17T01:30:36.780Z,93.15
2018-04-17T01:33:02.700Z,92.65
2018-04-17T01:35:28.588Z,92.79
2018-04-17T01:37:55.565Z,92.53
2018-04-17T01:40:21.565Z,92.75
2018-04-17T01:42:47.435Z,92.57
2018-04-17T01:45:13.327Z,92.36
2018-04-17T01:47:39.251Z,92.78
2018-04-17T01:50:05.152Z,92.78
2018-04-17T01:52:31.189Z,92.75
2018-04-17T01:54:57.133Z,92.97
2018-04-17T01:57:23.060Z,92.85
2018-04-17T01:59:48.977Z,92.64
2018-04-17T02:02:14.912Z,92.83
2018-04-17T02:04:43.722Z,92.73
2018-04-17T02:07:09.588Z,92.50
2018-04-17T02:09:35.688Z,92.25
2018-04-17T02:12:01.580Z,92.57
2018-04-17T02:14:27.503Z,92.50
2018-04-17T02:16:53.573Z,92.79
2018-04-17T02:19:19.453Z,92.83
2018-04-17T02:21:45.324Z,92.43
2018-04-17T02:24:11.249Z,92.81
2018-04-17T02:26:37.188Z,92.66
2018-04-17T02:29:03.160Z,92.78
2018-04-17T02:31:29.075Z,92.48
2018-04-17T02:33:55.024Z,92.76
2018-04-17T02:36:20.892Z,92.28
2018-04-17T02:38:46.942Z,92.90
2018-04-17T02:41:12.907Z,93.23
2018-04-17T02:43:38.777Z,93.31
2018-04-17T02:46:04.729Z,93.15
2018-04-17T02:48:30.611Z,93.10
2018-04-17T02:50:56.520Z,93.28
2018-04-17T02:53:22.523Z,93.27
2018-04-17T02:55:48.384Z,93.59
2018-04-17T02:58:14.279Z,93.62
2018-04-17T03:00:40.203Z,93.61
2018-04-17T03:03:06.096Z,93.72
2018-04-17T03:05:32.076Z,93.68
2018-04-17T03:07:57.971Z,93.47
2018-04-17T03:10:23.847Z,93.45
2018-04-17T03:12:49.740Z,93.37
2018-04-17T03:15:15.669Z,93.48
2018-04-17T03:17:41.629Z,93.29
2018-04-17T03:20:07.529Z,93.48
2018-04-17T03:22:33.443Z,93.66
2018-04-17T03:24:59.356Z,93.76
2018-04-17T03:27:25.257Z,93.82
2018-04-17T03:29:51.288Z,93.79
2018-04-17T03:32:17.172Z,93.72
2018-04-17T03:34:43.080Z,93.50
2018-04-17T03:37:09.023Z,93.58
2018-04-17T03:39:34.897Z,93.36
2018-04-17T03:42:00.880Z,93.34
2018-04-17T03:44:26.799Z,93.29
2018-04-17T03:46:52.690Z,93.17
2018-04-17T03:49:18.565Z,93.15
2018-04-17T03:51:45.403Z,93.17
2018-04-17T03:54:11.400Z,93.21
2018-04-17T03:56:37.283Z,93.20
2018-04-17T03:59:03.227Z,93.34
2018-04-17T04:01:29.138Z,93.59
2018-04-17T04:03:55.105Z,93.63
2018-04-17T04:06:21.193Z,93.12
2018-04-17T04:08:47.071Z,93.29
2018-04-17T04:11:12.952Z,93.38
2018-04-17T04:13:39.042Z,93.46
2018-04-17T04:16:05.040Z,93.44
2018-04-17T04:21:47.096Z,93.33
2018-04-17T04:24:25.351Z,93.50
2018-04-17T04:26:51.324Z,93.57
2018-04-17T04:29:17.285Z,93.64
2018-04-17T04:31:43.216Z,93.62
2018-04-17T04:34:09.092Z,93.75
2018-04-17T04:36:34.996Z,93.77
2018-04-17T04:39:00.998Z,93.90
2018-04-17T04:41:27.005Z,94.00
2018-04-17T04:43:53.733Z,94.05
2018-04-17T04:46:19.659Z,94.29
2018-04-17T04:48:45.556Z,94.21
2018-04-17T04:51:11.526Z,93.95
2018-04-17T04:53:37.557Z,94.10
2018-04-17T04:56:03.515Z,94.11
2018-04-17T04:58:29.403Z,94.08
2018-04-17T05:00:55.332Z,94.00
2018-04-17T05:03:21.256Z,94.10
2018-04-17T05:05:47.219Z,94.29
2018-04-17T05:08:13.135Z,94.34
2018-04-17T05:10:38.997Z,94.33
2018-04-17T05:13:04.897Z,93.04
2018-04-17T05:15:30.872Z,92.38
2018-04-17T05:17:56.830Z,92.53
2018-04-17T05:20:22.699Z,92.55
2018-04-17T05:22:48.735Z,92.64
2018-04-17T05:25:14.597Z,92.53
2018-04-17T05:27:40.552Z,92.62
2018-04-17T05:30:06.560Z,92.86
2018-04-17T05:32:32.411Z,93.09
2018-04-17T05:34:58.263Z,93.04
2018-04-17T05:37:24.187Z,93.26
2018-04-17T05:39:51.151Z,93.28
2018-04-17T05:42:17.176Z,93.26
2018-04-17T05:44:43.110Z,93.37
2018-04-17T05:47:08.987Z,93.29
2018-04-17T05:49:34.942Z,93.23
2018-04-17T05:52:00.903Z,93.05
2018-04-17T05:54:26.895Z,93.06
2018-04-17T05:56:52.875Z,92.69
2018-04-17T05:59:19.109Z,92.30
2018-04-17T06:01:45.876Z,92.09
2018-04-17T06:04:11.836Z,91.92
2018-04-17T06:06:37.840Z,91.69
2018-04-17T06:09:03.760Z,91.82
2018-04-17T06:11:29.638Z,91.74
2018-04-17T06:13:55.559Z,91.63
2018-04-17T06:16:21.498Z,91.61
2018-04-17T06:18:47.546Z,91.53
2018-04-17T06:21:13.458Z,91.30
2018-04-17T06:23:39.327Z,90.78
2018-04-17T06:26:05.249Z,91.07
2018-04-17T06:28:31.196Z,90.91
2018-04-17T06:30:57.222Z,90.54
2018-04-17T06:33:23.108Z,90.48
2018-04-17T06:35:49.019Z,90.50
2018-04-17T06:38:15.948Z,91.02
2018-04-17T06:40:41.881Z,91.33
2018-04-17T06:43:07.980Z,90.97
2018-04-17T06:45:34.012Z,89.26
2018-04-17T06:47:59.876Z,89.18
2018-04-17T06:50:25.934Z,89.55
2018-04-17T06:52:51.924Z,89.16
2018-04-17T06:55:17.886Z,89.68
2018-04-17T06:57:44.927Z,88.87
2018-04-17T07:00:10.832Z,89.56
2018-04-17T07:02:36.712Z,88.22
2018-04-17T07:05:03.585Z,88.67
2018-04-17T07:07:29.578Z,89.01
2018-04-17T07:09:55.443Z,89.14
2018-04-17T07:12:21.463Z,89.41
2018-04-17T07:14:47.339Z,88.96
2018-04-17T07:17:13.288Z,88.24
2018-04-17T07:19:48.716Z,88.65
2018-04-17T07:22:14.588Z,87.30
2018-04-17T07:24:42.578Z,86.08
2018-04-17T07:27:09.067Z,86.71
2018-04-17T07:29:34.991Z,85.29
2018-04-17T07:32:04.393Z,84.46
2018-04-17T07:34:30.489Z,84.28
2018-04-17T07:36:56.364Z,84.48
2018-04-17T07:39:22.255Z,84.61
2018-04-17T07:41:48.233Z,83.63
2018-04-17T07:44:14.287Z,82.80
2018-04-17T07:46:40.179Z,81.31
2018-04-17T07:49:06.132Z,80.16
2018-04-17T07:51:33.122Z,80.12
2018-04-17T07:54:01.956Z,79.25
2018-04-17T07:56:33.680Z,77.56
2018-04-17T07:58:59.593Z,78.74
2018-04-17T08:01:25.473Z,77.14
2018-04-17T08:03:51.397Z,74.99
2018-04-17T08:06:19.633Z,72.02
2018-04-17T08:08:48.909Z,72.61
2018-04-17T08:11:15.294Z,72.44
2018-04-17T08:13:41.247Z,69.79
2018-04-17T08:16:07.191Z,70.74
2018-04-17T08:18:33.769Z,65.75
2018-04-17T08:20:59.872Z,67.21
2018-04-17T08:23:26.086Z,64.56
2018-04-17T08:25:52.175Z,59.79
2018-04-17T08:28:18.056Z,60.56
2018-04-17T08:30:45.068Z,62.59
2018-04-17T08:33:11.068Z,58.95
2018-04-17T08:35:36.936Z,62.61
2018-04-17T08:38:02.829Z,60.82
2018-04-17T08:40:28.918Z,59.40
2018-04-17T08:42:55.128Z,61.06
2018-04-17T08:45:21.156Z,55.05
2018-04-17T08:47:47.577Z,55.15
2018-04-17T08:50:13.466Z,55.31
2018-04-17T08:52:39.331Z,53.99
2018-04-17T08:55:05.380Z,52.95
2018-04-17T08:57:31.412Z,51.39
2018-04-17T08:59:57.564Z,52.61
2018-04-17T09:02:24.556Z,49.32
2018-04-17T09:04:51.521Z,50.03
2018-04-17T09:07:17.824Z,50.36
2018-04-17T09:09:43.831Z,49.37
2018-04-17T09:12:09.713Z,50.67
2018-04-17T09:14:35.608Z,46.68
2018-04-17T09:17:01.571Z,47.33
2018-04-17T09:19:27.984Z,45.71
2018-04-17T09:21:53.972Z,45.98
2018-04-17T09:24:19.868Z,48.63
2018-04-17T09:26:45.808Z,46.12
2018-04-17T09:29:11.696Z,45.64
2018-04-17T09:31:38.120Z,44.03
2018-04-17T09:34:04.156Z,43.13
2018-04-17T09:36:30.032Z,45.99
2018-04-17T09:38:56.354Z,44.66
2018-04-17T09:41:22.268Z,44.70
2018-04-17T09:43:48.192Z,42.62
2018-04-17T09:46:14.188Z,42.08
2018-04-17T09:48:41.300Z,43.95
2018-04-17T09:51:07.180Z,40.68
2018-04-17T09:53:33.115Z,40.01
2018-04-17T09:56:02.823Z,44.47
2018-04-17T09:58:28.863Z,41.30
2018-04-17T10:00:57.671Z,39.80
2018-04-17T10:03:23.552Z,40.81
2018-04-17T10:05:49.453Z,40.89
2018-04-17T10:08:15.418Z,43.35
2018-04-17T10:10:41.436Z,39.65
2018-04-17T10:13:07.305Z,39.82
2018-04-17T10:15:33.212Z,38.70
2018-04-17T10:17:59.080Z,38.54
2018-04-17T10:20:27.155Z,38.43
2018-04-17T10:22:53.160Z,38.78
2018-04-17T10:25:19.042Z,39.93
2018-04-17T10:27:44.924Z,38.05
2018-04-17T10:30:10.858Z,39.20
2018-04-17T10:32:36.723Z,39.14
2018-04-17T10:35:02.650Z,38.32
2018-04-17T10:37:28.647Z,37.03
2018-04-17T10:39:54.530Z,37.94
2018-04-17T10:42:20.415Z,41.66
2018-04-17T10:44:46.348Z,37.76
2018-04-17T10:47:12.208Z,39.06
2018-04-17T10:49:39.191Z,35.19
2018-04-17T10:52:05.120Z,37.78
2018-04-17T10:54:30.991Z,36.67
2018-04-17T10:56:56.889Z,35.38
2018-04-17T10:59:22.804Z,36.17
2018-04-17T11:01:48.753Z,40.35
2018-04-17T11:04:15.053Z,35.12
2018-04-17T11:06:41.038Z,35.17
2018-04-17T11:09:06.916Z,34.60
2018-04-17T11:11:32.781Z,35.02
2018-04-17T11:13:58.710Z,35.14
2018-04-17T11:16:24.567Z,38.98
2018-04-17T11:18:51.196Z,36.92
2018-04-17T11:21:17.103Z,33.71
2018-04-17T11:23:43.085Z,36.79
2018-04-17T11:26:09.573Z,36.81
2018-04-17T11:28:35.504Z,32.79
2018-04-17T11:31:01.405Z,33.11
2018-04-17T11:33:27.296Z,35.00
2018-04-17T11:35:53.328Z,33.91
2018-04-17T11:38:19.205Z,33.94
2018-04-17T11:40:45.070Z,31.73
2018-04-17T11:43:10.996Z,33.92
2018-04-17T11:45:36.872Z,32.65
2018-04-17T11:48:02.832Z,33.38
2018-04-17T11:50:28.751Z,32.25
2018-04-17T11:52:54.661Z,32.80
2018-04-17T11:55:20.533Z,31.91
2018-04-17T11:57:46.458Z,33.62
2018-04-17T12:00:12.508Z,36.05
2018-04-17T12:02:38.360Z,35.70
2018-04-17T12:05:04.416Z,37.46
2018-04-17T12:07:30.305Z,34.47
2018-04-17T12:09:56.189Z,36.20
2018-04-17T12:12:22.183Z,34.80
2018-04-17T12:14:48.070Z,38.24
2018-04-17T12:17:13.988Z,36.07
2018-04-17T12:19:39.896Z,37.31
2018-04-17T12:22:05.759Z,37.85
2018-04-17T12:24:31.727Z,37.35
2018-04-17T12:26:57.640Z,40.17
2018-04-17T12:29:23.503Z,41.59
2018-04-17T12:31:49.378Z,40.35
2018-04-17T12:34:15.303Z,39.13
2018-04-17T12:36:41.272Z,39.78
2018-04-17T12:39:07.136Z,40.56
2018-04-17T12:41:33.451Z,39.59
2018-04-17T12:43:59.328Z,38.82
2018-04-17T12:46:25.220Z,39.72
2018-04-17T12:48:51.208Z,40.52
2018-04-17T12:51:17.072Z,39.52
2018-04-17T12:53:42.951Z,39.89
2018-04-17T12:56:09.033Z,40.48
2018-04-17T12:58:34.901Z,38.40
2018-04-17T13:01:00.863Z,41.69
2018-04-17T13:03:26.813Z,39.44
2018-04-17T13:05:52.676Z,39.47
2018-04-17T13:08:18.561Z,41.07
2018-04-17T13:10:44.485Z,39.92
2018-04-17T13:13:10.443Z,39.25
2018-04-17T13:15:36.329Z,39.03
2018-04-17T13:18:02.244Z,40.71
2018-04-17T13:20:28.110Z,38.90
2018-04-17T13:22:54.004Z,37.33
2018-04-17T13:25:20.342Z,38.92
2018-04-17T13:27:46.210Z,39.06
2018-04-17T13:30:12.196Z,40.30
2018-04-17T13:32:38.103Z,39.15
2018-04-17T13:35:03.959Z,40.97
2018-04-17T13:37:29.951Z,39.95
2018-04-17T13:39:55.862Z,40.94
2018-04-17T13:42:21.791Z,38.85
2018-04-17T13:44:47.619Z,41.48
2018-04-17T13:47:13.552Z,39.93
2018-04-17T13:49:39.507Z,40.90
2018-04-17T13:52:05.376Z,40.79
2018-04-17T13:54:44.968Z,42.17
2018-04-17T13:57:10.861Z,38.10
2018-04-17T13:59:36.736Z,40.15
2018-04-17T14:02:02.761Z,40.45
2018-04-17T14:04:28.676Z,39.23
2018-04-17T14:06:54.605Z,38.55
2018-04-17T14:09:20.530Z,38.02
2018-04-17T14:11:46.846Z,38.15
2018-04-17T14:14:12.892Z,38.35
2018-04-17T14:16:38.827Z,37.77
2018-04-17T14:19:04.710Z,38.53
2018-04-17T14:21:30.607Z,42.08
2018-04-17T14:23:56.560Z,40.00
2018-04-17T14:26:22.539Z,39.29
2018-04-17T14:28:48.424Z,37.29
2018-04-17T14:31:14.340Z,36.41
2018-04-17T14:33:40.528Z,37.40
2018-04-17T14:36:06.408Z,37.65
2018-04-17T14:38:32.412Z,36.94
2018-04-17T14:40:58.290Z,38.87
2018-04-17T14:43:24.228Z,41.18
2018-04-17T14:45:50.185Z,37.16
2018-04-17T14:48:16.056Z,37.08
2018-04-17T14:50:42.044Z,36.42
2018-04-17T14:53:07.984Z,38.46
2018-04-17T14:55:33.860Z,35.90
2018-04-17T14:57:59.760Z,35.54
2018-04-17T15:00:25.696Z,37.22
2018-04-17T15:02:51.706Z,38.74
2018-04-17T15:05:17.588Z,38.53
2018-04-17T15:07:43.500Z,38.52
2018-04-17T15:10:09.381Z,37.72
2018-04-17T15:12:35.255Z,37.45
2018-04-17T15:15:01.280Z,39.45
2018-04-17T15:17:27.132Z,38.90
2018-04-17T15:19:52.987Z,39.77
2018-04-17T15:22:19.200Z,38.29
2018-04-17T15:24:45.084Z,38.58
2018-04-17T15:27:11.057Z,37.67
2018-04-17T15:29:37.209Z,38.97
2018-04-17T15:32:03.088Z,39.05
2018-04-17T15:34:29.056Z,39.35
2018-04-17T15:36:54.985Z,37.64
2018-04-17T15:39:20.919Z,36.68
2018-04-17T15:41:46.799Z,37.48
2018-04-17T15:44:12.723Z,38.82
2018-04-17T15:46:38.601Z,39.77
2018-04-17T15:49:04.474Z,37.87
2018-04-17T15:51:30.504Z,40.01
2018-04-17T15:53:56.402Z,40.38
2018-04-17T15:56:22.294Z,41.30
2018-04-17T15:58:48.229Z,40.90
2018-04-17T16:01:14.115Z,39.99
2018-04-17T16:03:40.915Z,39.52
2018-04-17T16:06:06.840Z,38.59
2018-04-17T16:08:32.704Z,39.05
2018-04-17T16:10:58.600Z,42.49
2018-04-17T16:13:24.794Z,39.45
2018-04-17T16:15:50.760Z,39.45
2018-04-17T16:18:16.624Z,41.87
2018-04-17T16:20:42.537Z,40.72
2018-04-17T16:23:08.409Z,41.55
2018-04-17T16:25:34.309Z,41.45
2018-04-17T16:28:00.324Z,41.67
2018-04-17T16:30:26.237Z,43.37
2018-04-17T16:32:52.123Z,41.14
2018-04-17T16:35:18.036Z,42.39
2018-04-17T16:37:43.977Z,41.83
2018-04-17T16:40:09.952Z,41.50
2018-04-17T16:42:35.896Z,43.34
2018-04-17T16:45:01.805Z,41.64
2018-04-17T16:47:27.736Z,44.81
2018-04-17T16:49:53.664Z,49.25
2018-04-17T16:52:19.653Z,43.58
2018-04-17T16:54:45.615Z,47.40
2018-04-17T16:57:11.870Z,46.84
2018-04-17T16:59:37.770Z,44.46
2018-04-17T17:02:03.667Z,46.23
2018-04-17T17:04:29.677Z,44.37
2018-04-17T17:06:55.552Z,46.30
2018-04-17T17:09:21.419Z,47.73
2018-04-17T17:11:47.361Z,46.09
2018-04-17T17:14:13.231Z,45.85
2018-04-17T17:16:39.183Z,45.83
2018-04-17T17:19:05.117Z,48.12
2018-04-17T17:21:30.991Z,50.77
2018-04-17T17:23:56.869Z,50.29
2018-04-17T17:26:22.803Z,55.42
2018-04-17T17:28:48.746Z,55.95
2018-04-17T17:31:14.604Z,57.78
2018-04-17T17:33:40.524Z,58.31
2018-04-17T17:36:06.410Z,59.36
2018-04-17T17:38:32.304Z,57.39
2018-04-17T17:40:58.321Z,59.52
2018-04-17T17:43:24.224Z,62.29
2018-04-17T17:45:50.088Z,62.95
2018-04-17T17:48:15.992Z,62.90
2018-04-17T17:50:41.883Z,65.08
2018-04-17T17:53:08.016Z,65.50
2018-04-17T17:55:33.975Z,66.58
2018-04-17T17:57:59.849Z,66.10
2018-04-17T18:00:25.745Z,67.14
2018-04-17T18:02:52.056Z,68.06
2018-04-17T18:05:18.054Z,67.78
2018-04-17T18:07:43.952Z,68.51
2018-04-17T18:10:13.535Z,67.35
2018-04-17T18:12:39.411Z,68.48
2018-04-17T18:15:05.275Z,69.05
2018-04-17T18:17:31.283Z,69.44
2018-04-17T18:19:57.144Z,69.72
2018-04-17T18:22:23.008Z,70.11
2018-04-17T18:24:48.927Z,70.92
2018-04-17T18:27:14.798Z,70.79
2018-04-17T18:29:40.772Z,70.58
2018-04-17T18:32:06.699Z,71.07
2018-04-17T18:34:32.574Z,71.18
2018-04-17T18:36:58.505Z,71.65
2018-04-17T18:39:24.451Z,71.83
2018-04-17T18:41:50.455Z,71.91
2018-04-17T18:44:16.328Z,72.07
2018-04-17T18:46:42.236Z,73.17
2018-04-17T18:49:08.144Z,73.49
2018-04-17T18:51:34.009Z,73.73
2018-04-17T18:54:00.175Z,72.48
2018-04-17T18:56:26.039Z,72.56
2018-04-17T18:58:51.916Z,73.25
2018-04-17T19:01:17.992Z,73.40
2018-04-17T19:03:43.886Z,73.30
2018-04-17T19:06:09.855Z,73.08
2018-04-17T19:08:35.800Z,73.90
2018-04-17T19:11:01.677Z,74.37
2018-04-17T19:13:28.592Z,74.78
2018-04-17T19:15:54.482Z,74.44
2018-04-17T19:18:20.485Z,74.74
2018-04-17T19:20:46.353Z,74.87
2018-04-17T19:23:12.296Z,75.56
2018-04-17T19:25:38.251Z,76.23
2018-04-17T19:28:04.136Z,76.10
2018-04-17T19:30:30.179Z,76.36
2018-04-17T19:32:56.081Z,76.82
2018-04-17T19:35:21.964Z,76.25
2018-04-17T19:37:48.356Z,76.98
2018-04-17T19:40:14.269Z,77.11
2018-04-17T19:42:40.283Z,77.27
2018-04-17T19:45:06.188Z,77.40
2018-04-17T19:47:32.083Z,77.20
2018-04-17T19:49:57.956Z,77.33
2018-04-17T19:52:23.899Z,77.26
2018-04-17T19:54:49.977Z,78.00
2018-04-17T19:57:15.843Z,78.66
2018-04-17T19:59:41.749Z,78.99
2018-04-17T20:02:07.627Z,79.39
2018-04-17T20:04:33.505Z,79.65
2018-04-17T20:06:59.892Z,79.30
2018-04-17T20:09:26.005Z,79.73
2018-04-17T20:11:51.868Z,79.83
2018-04-17T20:14:17.783Z,80.00
2018-04-17T20:16:43.644Z,80.34
2018-04-17T20:19:09.604Z,80.76
2018-04-17T20:21:35.520Z,81.06
2018-04-17T20:24:03.502Z,80.86
2018-04-17T20:26:29.744Z,80.68
2018-04-17T20:28:55.700Z,80.16
2018-04-17T20:31:21.650Z,79.21
2018-04-17T20:33:47.555Z,79.14
2018-04-17T20:36:13.477Z,78.93
2018-04-17T20:38:39.383Z,80.05
2018-04-17T20:41:05.259Z,81.50
2018-04-17T20:43:31.300Z,81.77
2018-04-17T20:45:57.174Z,80.22
2018-04-17T20:48:23.033Z,80.66
2018-04-17T20:50:48.971Z,79.72
2018-04-17T20:53:14.870Z,80.57
2018-04-17T20:55:40.839Z,80.68
2018-04-17T20:58:06.778Z,80.71
2018-04-17T21:00:32.770Z,81.37
2018-04-17T21:02:58.631Z,81.55
2018-04-17T21:05:24.553Z,81.58
2018-04-17T21:07:50.550Z,82.01
2018-04-17T21:10:16.435Z,81.33
2018-04-17T21:12:42.698Z,81.16
2018-04-17T21:15:08.581Z,80.78
2018-04-17T21:17:34.468Z,81.67
2018-04-17T21:20:00.472Z,81.88
2018-04-17T21:22:26.367Z,81.81
2018-04-17T21:24:52.308Z,81.77
2018-04-17T21:27:18.221Z,82.41
2018-04-17T21:29:44.674Z,82.86
2018-04-17T21:32:10.621Z,83.32
2018-04-17T21:34:36.535Z,83.33
2018-04-17T21:37:02.465Z,83.45
2018-04-17T21:39:28.373Z,82.92
2018-04-17T21:41:54.306Z,83.62
2018-04-17T21:44:20.340Z,83.83
2018-04-17T21:46:46.245Z,83.24
2018-04-17T21:49:12.230Z,83.34
2018-04-17T21:51:38.095Z,83.25
2018-04-17T21:54:03.970Z,82.70
2018-04-17T21:56:29.968Z,83.34
2018-04-17T21:58:55.863Z,83.40
2018-04-17T22:01:27.788Z,83.16
2018-04-17T22:03:53.697Z,83.08
2018-04-17T22:06:19.571Z,83.50
2018-04-17T22:08:45.544Z,83.83
2018-04-17T22:11:11.467Z,84.09
2018-04-17T22:13:37.456Z,84.14
2018-04-17T22:16:03.720Z,84.23
2018-04-17T22:18:30.134Z,84.31
2018-04-17T22:20:56.976Z,84.72
2018-04-17T22:23:23.333Z,84.80
2018-04-17T22:25:49.738Z,84.76
2018-04-17T22:28:15.656Z,84.83
2018-04-17T22:30:42.100Z,84.83
2018-04-17T22:33:08.495Z,84.10
2018-04-17T22:35:34.762Z,84.06
2018-04-17T22:38:00.855Z,84.08
2018-04-17T22:40:27.429Z,84.51
2018-04-17T22:42:53.829Z,84.87
2018-04-17T22:45:19.833Z,84.43
2018-04-17T22:47:46.668Z,84.54
2018-04-17T22:50:13.064Z,84.64
2018-04-17T22:52:39.485Z,84.62
2018-04-17T22:55:05.490Z,84.43
2018-04-17T22:57:31.901Z,84.67
2018-04-17T22:59:57.853Z,85.14
2018-04-17T23:02:24.088Z,85.41
2018-04-17T23:04:50.497Z,85.46
2018-04-17T23:07:16.856Z,85.40
2018-04-17T23:09:43.024Z,85.35
2018-04-17T23:12:08.915Z,85.77
2018-04-17T23:14:34.912Z,86.30
2018-04-17T23:17:00.775Z,86.47
2018-04-17T23:19:26.644Z,86.47
2018-04-17T23:21:52.602Z,85.94
2018-04-17T23:24:18.504Z,86.14
2018-04-17T23:26:44.429Z,86.07
2018-04-17T23:29:10.302Z,85.56
2018-04-17T23:31:36.210Z,85.36
2018-04-17T23:34:02.200Z,85.97
2018-04-17T23:36:28.066Z,86.49
2018-04-17T23:38:54.022Z,86.10
2018-04-17T23:41:19.897Z,85.47
2018-04-17T23:43:45.773Z,86.27
2018-04-17T23:46:11.870Z,87.06
2018-04-17T23:48:37.744Z,87.16
2018-04-17T23:51:03.663Z,86.78
2018-04-17T23:53:29.592Z,86.55
2018-04-17T23:55:55.540Z,86.43
2018-04-17T23:58:21.551Z,86.61
